Terminal Aerodrome Forecast
Issued by NWS

Home | Current Version | Previous Version | Text Only | Print | Product List | Glossary On
Versions: 1 2 3 4 5 6 7 8 9 10 11 12 13 14 15 16 17 18 19
000
FTUS45 KRIW 251200 AAA
TAFCPR
TAF AMD
KCPR 251215Z 2512/2612 30007KT P6SM VCSH SCT009 BKN020
     FM251600 24008KT P6SM SCT015 BKN040
     FM251900 33007KT P6SM VCSH SCT035 BKN060
     FM260800 23006KT P6SM VCFG SCT004 SCT060=

USA.gov is the U.S. government's official web portal to all federal, state and local government web resources and services.